Time;durP1;ratioP1;P1;durP2;ratioP2;P2;SDS_P1;SDS_P2;PMS_P1;PMS_P2;Temp;Humidity;BMP_temperature;BMP_pressure;BME280_temperature;BME280_humidity;BME280_pressure;Samples;Min_cycle;Max_cycle;Signal;HPM_P1;HPM_P2
2022/10/21 00:03:02;;;;;;;18.57;13.27;;;15.60;99.90;;;;;;2615776;54;20408;-80
2022/10/21 00:05:27;;;;;;;15.70;13.00;;;15.60;99.90;;;;;;2617264;54;20143;-81
2022/10/21 00:11:16;;;;;;;20.33;14.20;;;15.70;99.90;;;;;;2616875;54;20144;-80
2022/10/21 00:17:04;;;;;;;15.87;12.43;;;15.60;99.90;;;;;;2616911;54;20403;-80
2022/10/21 00:22:51;;;;;;;17.20;13.80;;;15.60;99.90;;;;;;2615074;54;20130;-80
2022/10/21 00:28:40;;;;;;;17.70;13.20;;;15.50;99.90;;;;;;2616247;54;20130;-79
2022/10/21 00:34:27;;;;;;;15.17;11.67;;;15.40;99.90;;;;;;2616383;54;21018;-80
2022/10/21 00:40:15;;;;;;;15.30;11.67;;;15.50;99.90;;;;;;2615805;54;20211;-80
2022/10/21 00:46:06;;;;;;;15.83;11.27;;;15.60;99.90;;;;;;2617141;54;20170;-79
2022/10/21 00:51:58;;;;;;;21.57;12.37;;;15.50;99.90;;;;;;2617086;46;20411;-81
2022/10/21 00:57:46;;;;;;;16.30;11.47;;;15.50;99.90;;;;;;2615451;54;20366;-80
2022/10/21 01:07:34;;;;;;;15.93;12.27;;;15.40;99.90;;;;;;2617304;54;21070;-80
2022/10/21 01:30:48;;;;;;;19.23;13.20;;;15.40;99.90;;;;;;2614884;54;20375;-80
2022/10/21 01:49:52;;;;;;;15.53;11.97;;;14.60;99.90;;;;;;2614216;54;20399;-79
2022/10/21 01:55:41;;;;;;;16.47;12.30;;;14.20;99.90;;;;;;2614531;54;20431;-80
2022/10/21 02:01:31;;;;;;;19.87;13.07;;;14.00;99.90;;;;;;2617282;54;20414;-80
2022/10/21 02:10:47;;;;;;;23.13;11.70;;;13.50;99.90;;;;;;2616451;39;20446;-79
2022/10/21 02:13:51;;;;;;;14.57;11.00;;;13.60;99.90;;;;;;2615187;54;20407;-79
2022/10/21 02:16:20;;;;;;;16.33;12.83;;;13.50;99.90;;;;;;2613896;47;21074;-80
2022/10/21 02:22:12;;;;;;;15.53;13.07;;;13.40;99.90;;;;;;2616223;54;20943;-80
2022/10/21 02:27:59;;;;;;;21.20;13.90;;;13.10;99.90;;;;;;2617171;54;20395;-78
2022/10/21 02:33:57;;;;;;;16.57;12.23;;;13.20;99.90;;;;;;2617147;54;20390;-80
2022/10/21 02:46:38;;;;;;;17.77;13.00;;;12.90;99.90;;;;;;2616893;54;20391;-80
2022/10/21 02:52:26;;;;;;;23.93;12.17;;;12.70;99.90;;;;;;2617010;54;20493;-80
2022/10/21 02:58:13;;;;;;;20.20;11.00;;;12.50;99.90;;;;;;2616573;54;20122;-81
2022/10/21 03:04:00;;;;;;;16.07;11.80;;;12.50;99.90;;;;;;2617870;54;20123;-82
2022/10/21 03:09:47;;;;;;;21.07;9.40;;;12.40;99.90;;;;;;2617510;54;20221;-80
2022/10/21 03:15:35;;;;;;;16.10;11.60;;;12.70;99.90;;;;;;2616903;39;20522;-81
2022/10/21 03:21:23;;;;;;;11.63;7.00;;;13.10;99.90;;;;;;2616425;54;20137;-79
2022/10/21 03:27:11;;;;;;;7.83;6.73;;;14.00;99.90;;;;;;2617290;54;20415;-81
2022/10/21 03:32:59;;;;;;;9.97;6.67;;;13.80;99.90;;;;;;2617600;54;20138;-79
2022/10/21 03:38:47;;;;;;;9.10;5.30;;;13.80;99.90;;;;;;2616943;39;20749;-80
2022/10/21 03:44:35;;;;;;;8.20;5.30;;;14.00;99.90;;;;;;2617073;54;20134;-80
2022/10/21 03:50:23;;;;;;;5.90;5.10;;;14.30;99.90;;;;;;2617712;54;20123;-81
2022/10/21 03:56:11;;;;;;;9.77;5.30;;;14.20;99.90;;;;;;2617740;54;20169;-80
2022/10/21 04:01:59;;;;;;;5.37;4.63;;;14.40;99.90;;;;;;2616167;54;20461;-80
2022/10/21 04:07:47;;;;;;;5.90;5.07;;;14.80;99.90;;;;;;2617876;39;20520;-81
2022/10/21 04:13:35;;;;;;;9.40;4.23;;;14.80;99.90;;;;;;2615565;54;20217;-78
2022/10/21 04:16:53;;;;;;;4.97;4.57;;;14.90;99.90;;;;;;2617961;54;20423;-78
2022/10/21 04:22:41;;;;;;;8.60;4.90;;;15.00;99.90;;;;;;2616955;54;20371;-78
2022/10/21 04:28:29;;;;;;;6.47;4.73;;;15.00;99.90;;;;;;2615810;39;21022;-78
2022/10/21 04:34:17;;;;;;;6.37;4.47;;;15.10;99.90;;;;;;2617163;54;20415;-80
2022/10/21 04:40:07;;;;;;;5.53;4.00;;;15.00;99.90;;;;;;2617794;54;20114;-80
2022/10/21 04:45:55;;;;;;;6.10;4.10;;;15.00;99.90;;;;;;2617196;39;20941;-78
2022/10/21 04:51:43;;;;;;;8.33;3.83;;;14.90;99.90;;;;;;2614900;54;20134;-78
2022/10/21 04:57:31;;;;;;;4.40;4.00;;;15.20;99.90;;;;;;2615925;54;20154;-78
2022/10/21 05:03:19;;;;;;;5.90;4.20;;;15.30;99.90;;;;;;2617798;39;20892;-77
2022/10/21 05:09:08;;;;;;;4.27;3.60;;;15.20;99.90;;;;;;2617184;54;20391;-81
2022/10/21 05:12:21;;;;;;;11.60;5.13;;;15.20;99.90;;;;;;2616090;54;20485;-80
2022/10/21 05:14:46;;;;;;;6.40;4.20;;;15.20;99.90;;;;;;2615317;47;20462;-81
2022/10/21 05:20:34;;;;;;;16.40;6.00;;;15.20;99.90;;;;;;2616773;54;20657;-83
2022/10/21 05:26:23;;;;;;;3.83;3.43;;;15.10;99.90;;;;;;2617406;54;20167;-81
2022/10/21 05:32:10;;;;;;;5.77;4.10;;;15.20;99.90;;;;;;2618117;54;20442;-81
2022/10/21 05:37:58;;;;;;;8.73;4.10;;;15.30;99.90;;;;;;2617232;54;20114;-78
2022/10/21 05:43:46;;;;;;;6.43;4.20;;;15.20;99.90;;;;;;2614029;54;20284;-80
2022/10/21 05:49:34;;;;;;;6.07;5.07;;;15.30;99.90;;;;;;2615268;54;20149;-79
2022/10/21 05:55:21;;;;;;;6.37;4.53;;;15.30;99.90;;;;;;2616419;54;20126;-77
2022/10/21 06:01:10;;;;;;;7.37;4.40;;;15.10;99.90;;;;;;2614749;54;20658;-76
2022/10/21 06:06:58;;;;;;;6.50;4.30;;;15.00;99.90;;;;;;2615035;54;20398;-77
2022/10/21 06:16:51;;;;;;;11.07;4.67;;;14.90;99.90;;;;;;2615035;54;20531;-77
2022/10/21 06:22:40;;;;;;;6.40;3.83;;;14.60;99.90;;;;;;2614749;54;20926;-78
2022/10/21 06:28:30;;;;;;;6.40;4.30;;;14.60;99.90;;;;;;2615807;54;20997;-77
2022/10/21 06:34:18;;;;;;;5.47;3.60;;;14.60;99.90;;;;;;2614315;54;20418;-77
2022/10/21 06:40:06;;;;;;;5.20;3.80;;;14.70;99.90;;;;;;2615214;54;20655;-77
2022/10/21 06:46:03;;;;;;;6.70;4.33;;;14.60;99.90;;;;;;2613091;54;20395;-79
2022/10/21 06:51:50;;;;;;;6.73;4.50;;;14.70;99.90;;;;;;2615792;54;20363;-79
2022/10/21 06:57:38;;;;;;;7.57;4.50;;;14.90;99.90;;;;;;2614328;54;20152;-79
2022/10/21 07:03:26;;;;;;;5.50;3.60;;;15.10;99.90;;;;;;2614734;54;20130;-78
2022/10/21 07:09:14;;;;;;;5.93;3.43;;;15.10;99.90;;;;;;2615208;54;20246;-79
2022/10/21 07:12:18;;;;;;;7.10;4.30;;;15.20;99.90;;;;;;2614214;39;20830;-81
2022/10/21 07:14:44;;;;;;;7.63;3.93;;;15.20;99.90;;;;;;2613947;47;20174;-82
2022/10/21 07:20:33;;;;;;;10.17;3.60;;;15.50;99.90;;;;;;2617422;54;20667;-81
2022/10/21 07:26:22;;;;;;;5.73;4.50;;;15.50;99.90;;;;;;2615439;54;20395;-81
2022/10/21 07:32:10;;;;;;;3.87;3.40;;;15.60;99.90;;;;;;2615733;54;20998;-80
2022/10/21 07:37:58;;;;;;;8.43;4.30;;;15.70;99.90;;;;;;2615097;54;20146;-80
2022/10/21 07:43:46;;;;;;;5.80;4.30;;;15.70;99.90;;;;;;2615454;54;20597;-79
2022/10/21 07:49:34;;;;;;;4.30;3.90;;;15.90;99.90;;;;;;2616274;39;20759;-81
2022/10/21 07:55:22;;;;;;;5.93;4.63;;;16.10;99.90;;;;;;2616452;54;20134;-80
2022/10/21 08:01:12;;;;;;;5.77;3.43;;;16.00;99.90;;;;;;2615733;54;20623;-77
2022/10/21 08:07:00;;;;;;;5.33;4.03;;;16.20;99.90;;;;;;2615591;39;20845;-80
2022/10/21 08:16:53;;;;;;;6.60;4.60;;;16.20;99.90;;;;;;2614967;54;20390;-80
2022/10/21 08:22:41;;;;;;;7.50;4.20;;;16.40;99.90;;;;;;2614295;54;20406;-78
2022/10/21 08:28:30;;;;;;;5.70;5.07;;;16.40;99.90;;;;;;2616255;31;20625;-79
2022/10/21 08:34:17;;;;;;;6.80;4.77;;;16.60;99.90;;;;;;2614227;54;20395;-79
2022/10/21 08:40:06;;;;;;;7.97;4.27;;;16.50;99.90;;;;;;2615131;39;20655;-79
2022/10/21 08:53:00;;;;;;;7.33;4.60;;;16.70;99.90;;;;;;2614804;54;20364;-77
2022/10/21 08:55:40;;;;;;;6.97;4.90;;;16.60;99.90;;;;;;2613645;47;20412;-77
2022/10/21 09:11:50;;;;;;;7.20;5.10;;;16.10;99.90;;;;;;2613646;54;20395;-79
2022/10/21 09:24:15;;;;;;;7.10;5.57;;;15.90;99.90;;;;;;2612229;54;20391;-79
2022/10/21 09:30:07;;;;;;;13.27;6.73;;;15.80;99.90;;;;;;2613948;46;20397;-79
2022/10/21 09:36:00;;;;;;;6.63;4.83;;;15.80;99.90;;;;;;2616100;54;20362;-80
2022/10/21 09:48:18;;;;;;;11.47;5.53;;;15.70;99.90;;;;;;2615904;54;20403;-82
2022/10/21 10:05:08;;;;;;;10.37;5.67;;;15.80;99.90;;;;;;2617003;54;20407;-83
2022/10/21 10:11:14;;;;;;;8.70;6.03;;;15.80;99.90;;;;;;2616270;54;20384;-83
2022/10/21 10:20:23;;;;;;;12.77;5.67;;;15.70;99.90;;;;;;2615861;46;20442;-81
2022/10/21 10:32:43;;;;;;;6.10;5.20;;;15.70;99.90;;;;;;2616474;54;20944;-82
2022/10/21 10:38:41;;;;;;;11.20;4.50;;;15.70;99.90;;;;;;2619025;54;20355;-84
2022/10/21 10:44:36;;;;;;;7.83;4.50;;;15.60;99.90;;;;;;2618293;31;20820;-84
2022/10/21 11:07:36;;;;;;;4.47;3.70;;;15.60;99.90;;;;;;2616056;54;20452;-83
2022/10/21 11:13:24;;;;;;;6.30;4.70;;;15.70;99.90;;;;;;2615104;54;20399;-78
2022/10/21 11:42:36;;;;;;;6.00;4.00;;;16.10;99.90;;;;;;2616434;54;20411;-79
2022/10/21 11:55:34;;;;;;;3.17;2.60;;;16.60;99.90;;;;;;2615199;54;20392;-79
2022/10/21 12:07:57;;;;;;;5.50;3.50;;;17.00;99.90;;;;;;2616624;54;20430;-79
2022/10/21 12:20:31;;;;;;;5.87;2.40;;;17.60;99.90;;;;;;2616560;54;20442;-80
2022/10/21 12:23:05;;;;;;;4.77;2.90;;;17.80;99.90;;;;;;2614634;54;20428;-80
2022/10/21 12:41:28;;;;;;;3.63;3.17;;;18.60;99.90;;;;;;2616477;54;20491;-80
2022/10/21 13:00:26;;;;;;;2.80;2.43;;;21.40;99.90;;;;;;2616566;31;20864;-77
2022/10/21 13:06:14;;;;;;;3.50;2.67;;;19.70;99.90;;;;;;2616067;54;20411;-79
2022/10/21 13:22:57;;;;;;;6.97;2.70;;;19.30;99.90;;;;;;2613111;54;20430;-80
2022/10/21 13:29:00;;;;;;;3.43;2.67;;;18.90;99.90;;;;;;2614531;54;20429;-79
2022/10/21 13:35:07;;;;;;;3.53;2.37;;;18.80;99.90;;;;;;2616655;39;20776;-80
2022/10/21 13:47:39;;;;;;;3.07;2.30;;;18.80;99.90;;;;;;2616110;54;20395;-80
2022/10/21 13:53:36;;;;;;;3.23;2.40;;;18.70;99.90;;;;;;2615707;54;20151;-82
2022/10/21 13:59:33;;;;;;;3.13;2.60;;;18.60;99.90;;;;;;2615377;54;20394;-80
2022/10/21 14:12:04;;;;;;;2.73;2.40;;;18.80;99.90;;;;;;2615710;54;20403;-82
2022/10/21 14:17:56;;;;;;;3.07;2.50;;;19.00;99.90;;;;;;2614501;54;20452;-82
2022/10/21 14:23:45;;;;;;;5.67;3.13;;;19.50;99.90;;;;;;2617229;54;20900;-82
2022/10/21 14:29:35;;;;;;;3.50;2.47;;;21.00;99.90;;;;;;2617262;54;20411;-80
2022/10/21 14:35:26;;;;;;;3.70;2.50;;;20.80;99.90;;;;;;2616437;39;20796;-82
2022/10/21 14:47:28;;;;;;;2.27;2.07;;;18.40;99.90;;;;;;2616622;54;20427;-82
2022/10/21 14:53:20;;;;;;;7.50;2.60;;;18.50;99.90;;;;;;2618430;31;20554;-82
2022/10/21 14:59:20;;;;;;;5.20;2.97;;;20.50;99.90;;;;;;2618065;39;20748;-78
2022/10/21 15:05:30;;;;;;;5.30;3.07;;;22.80;99.90;;;;;;2613426;54;20411;-77
2022/10/21 15:11:22;;;;;;;3.80;2.60;;;22.20;99.90;;;;;;2616045;54;20414;-79
2022/10/21 15:17:09;;;;;;;4.87;2.90;;;22.80;99.90;;;;;;2617587;54;20383;-79
2022/10/21 15:22:57;;;;;;;3.30;2.50;;;20.60;99.90;;;;;;2617773;54;20638;-80
2022/10/21 15:28:45;;;;;;;6.47;3.13;;;19.70;99.90;;;;;;2617396;54;20173;-80
2022/10/21 15:34:32;;;;;;;5.27;3.23;;;21.90;99.90;;;;;;2618177;54;20138;-79
2022/10/21 15:40:21;;;;;;;2.83;2.63;;;20.10;99.90;;;;;;2617285;54;20363;-78
2022/10/21 15:46:10;;;;;;;2.63;2.43;;;19.90;99.90;;;;;;2618014;39;20772;-78
2022/10/21 15:51:58;;;;;;;7.60;3.00;;;18.60;99.90;;;;;;2617760;54;20411;-79
2022/10/21 15:57:46;;;;;;;3.33;2.07;;;18.30;99.90;;;;;;2616406;54;20231;-78
2022/10/21 16:03:33;;;;;;;3.37;2.77;;;18.10;99.90;;;;;;2612845;54;20394;-77
2022/10/21 16:12:42;;;;;;;5.50;2.60;;;17.70;99.90;;;;;;2613562;54;20391;-75
2022/10/21 16:18:30;;;;;;;4.03;2.60;;;17.60;99.90;;;;;;2614996;54;21241;-76
2022/10/21 16:24:17;;;;;;;4.43;2.50;;;17.50;99.90;;;;;;2613179;54;20458;-76
2022/10/21 16:27:27;;;;;;;2.20;1.90;;;17.30;99.90;;;;;;2614415;47;20411;-75
2022/10/21 16:33:14;;;;;;;5.10;2.93;;;17.20;99.90;;;;;;2615325;39;20783;-76
2022/10/21 16:39:03;;;;;;;5.73;2.90;;;17.00;99.90;;;;;;2616581;54;20662;-79
2022/10/21 16:44:51;;;;;;;4.93;3.20;;;16.90;99.90;;;;;;2616493;54;20387;-78
2022/10/21 16:50:44;;;;;;;4.23;3.10;;;16.80;99.90;;;;;;2615371;54;20138;-75
2022/10/21 16:56:32;;;;;;;5.53;3.33;;;16.70;99.90;;;;;;2618162;54;20391;-80
2022/10/21 17:02:20;;;;;;;3.87;2.97;;;16.60;99.90;;;;;;2618415;54;20158;-80
2022/10/21 17:08:08;;;;;;;4.67;4.17;;;16.30;99.90;;;;;;2618381;54;20121;-81
2022/10/21 17:13:56;;;;;;;3.20;2.90;;;16.20;99.90;;;;;;2617616;54;20375;-80
2022/10/21 17:19:43;;;;;;;3.53;3.23;;;16.10;99.90;;;;;;2614877;54;20662;-81
2022/10/21 17:25:39;;;;;;;3.67;2.93;;;16.00;99.90;;;;;;2615082;47;20146;-80
2022/10/21 17:31:29;;;;;;;5.10;3.60;;;16.00;99.90;;;;;;2617898;54;20152;-81
2022/10/21 17:37:16;;;;;;;5.67;3.60;;;15.90;99.90;;;;;;2616192;54;20401;-80
2022/10/21 17:43:03;;;;;;;3.83;3.53;;;15.80;99.90;;;;;;2617062;54;20166;-80
2022/10/21 17:48:55;;;;;;;8.80;4.10;;;15.60;99.90;;;;;;2617468;54;20694;-80
2022/10/21 17:54:43;;;;;;;10.40;4.27;;;15.60;99.90;;;;;;2616683;54;20411;-80
2022/10/21 18:00:30;;;;;;;8.60;4.93;;;15.60;99.90;;;;;;2618434;54;20122;-80
2022/10/21 18:06:19;;;;;;;10.83;4.23;;;15.40;99.90;;;;;;2620495;54;20814;-80
2022/10/21 18:12:08;;;;;;;10.80;5.00;;;15.10;99.90;;;;;;2619114;54;20551;-80
2022/10/21 18:17:56;;;;;;;6.20;4.50;;;15.00;99.90;;;;;;2618806;54;20407;-81
2022/10/21 18:23:46;;;;;;;9.00;5.00;;;15.00;99.90;;;;;;2619345;54;20415;-80
2022/10/21 18:29:35;;;;;;;8.93;5.10;;;15.00;99.90;;;;;;2619315;46;20411;-80
2022/10/21 18:35:23;;;;;;;5.67;4.83;;;14.80;99.90;;;;;;2618082;54;20395;-80
2022/10/21 18:41:16;;;;;;;6.50;4.47;;;15.20;99.90;;;;;;2617737;54;20407;-81
2022/10/21 18:47:04;;;;;;;12.83;9.30;;;15.50;99.90;;;;;;2617898;54;20367;-78
2022/10/21 18:52:52;;;;;;;6.37;4.73;;;15.50;99.90;;;;;;2617278;39;20535;-77
2022/10/21 18:58:41;;;;;;;17.43;7.77;;;15.40;99.90;;;;;;2617266;54;20129;-79
2022/10/21 19:04:29;;;;;;;4.83;3.40;;;15.60;99.90;;;;;;2616098;54;20398;-77
2022/10/21 19:10:17;;;;;;;6.83;4.00;;;15.70;99.90;;;;;;2616718;54;20137;-78
2022/10/21 19:16:05;;;;;;;5.50;4.00;;;15.70;99.90;;;;;;2616121;54;20127;-77
2022/10/21 19:21:53;;;;;;;9.63;3.87;;;15.80;99.90;;;;;;2614216;54;20391;-78
2022/10/21 19:27:41;;;;;;;6.33;3.10;;;15.70;99.90;;;;;;2615484;46;20797;-78
2022/10/21 19:33:29;;;;;;;4.10;3.70;;;15.60;99.90;;;;;;2617216;39;20383;-77
2022/10/21 19:39:18;;;;;;;8.87;5.10;;;15.60;99.90;;;;;;2616719;31;20847;-77
2022/10/21 19:45:06;;;;;;;7.13;4.50;;;15.50;99.90;;;;;;2615440;54;20410;-78
2022/10/21 19:50:56;;;;;;;5.40;3.70;;;15.60;99.90;;;;;;2615424;54;20958;-78
2022/10/21 19:56:44;;;;;;;7.13;3.90;;;15.60;99.90;;;;;;2615785;54;20430;-77
2022/10/21 20:02:31;;;;;;;5.70;3.83;;;15.50;99.90;;;;;;2615571;54;20139;-78
2022/10/21 20:08:19;;;;;;;3.90;3.53;;;15.20;99.90;;;;;;2616078;39;20533;-76
2022/10/21 20:14:09;;;;;;;7.20;3.33;;;15.20;99.90;;;;;;2615680;54;20161;-78
2022/10/21 20:19:57;;;;;;;9.87;4.37;;;15.10;99.90;;;;;;2614853;54;20410;-78
2022/10/21 20:25:51;;;;;;;4.33;3.63;;;15.10;99.90;;;;;;2615400;54;20126;-78
2022/10/21 20:31:39;;;;;;;5.87;3.20;;;15.10;99.90;;;;;;2614797;54;20470;-79
2022/10/21 20:35:00;;;;;;;4.07;3.40;;;15.20;99.90;;;;;;2615102;54;20412;-78
2022/10/21 20:40:58;;;;;;;6.30;3.10;;;15.20;99.90;;;;;;2615896;54;20995;-77
2022/10/21 20:46:46;;;;;;;5.40;3.20;;;14.80;99.90;;;;;;2616174;54;20518;-80
2022/10/21 20:52:34;;;;;;;6.63;3.97;;;14.90;99.90;;;;;;2618576;54;20130;-80
2022/10/21 20:58:21;;;;;;;3.77;2.80;;;14.70;99.90;;;;;;2615746;54;20683;-78
2022/10/21 21:04:11;;;;;;;4.10;2.73;;;14.80;99.90;;;;;;2616830;54;20118;-79
2022/10/21 21:09:59;;;;;;;4.50;3.50;;;14.70;99.90;;;;;;2615873;39;20776;-78
2022/10/21 21:15:47;;;;;;;3.33;3.00;;;15.10;99.90;;;;;;2616419;54;20711;-80
2022/10/21 21:21:35;;;;;;;6.37;3.10;;;15.00;99.90;;;;;;2617099;54;20153;-79
2022/10/21 21:27:27;;;;;;;4.53;2.90;;;15.00;99.90;;;;;;2617738;46;20506;-79
2022/10/21 21:30:29;;;;;;;8.37;3.20;;;14.90;99.90;;;;;;2616202;54;20484;-80
2022/10/21 21:32:55;;;;;;;5.20;3.17;;;14.90;99.90;;;;;;2616532;47;20415;-81
2022/10/21 21:38:43;;;;;;;5.73;3.00;;;15.00;99.90;;;;;;2618832;54;20137;-80
2022/10/21 21:44:31;;;;;;;4.50;3.10;;;14.60;99.90;;;;;;2617044;54;20387;-79
2022/10/21 21:50:19;;;;;;;7.80;3.43;;;14.20;99.90;;;;;;2615218;54;20387;-77
2022/10/21 21:56:08;;;;;;;5.03;3.30;;;13.80;99.90;;;;;;2621269;54;20548;-80
2022/10/21 22:01:55;;;;;;;5.10;4.67;;;13.70;99.90;;;;;;2624151;54;20403;-79
2022/10/21 22:07:43;;;;;;;5.27;4.40;;;13.60;99.90;;;;;;2624450;54;20180;-81
2022/10/21 22:13:31;;;;;;;7.07;5.07;;;13.30;99.90;;;;;;2624747;54;20231;-82
2022/10/21 22:19:19;;;;;;;8.50;5.53;;;13.20;99.90;;;;;;2625234;54;20162;-81
2022/10/21 22:25:10;;;;;;;6.77;4.60;;;13.40;99.90;;;;;;2624740;54;20171;-80
2022/10/21 22:34:58;;;;;;;5.70;3.97;;;14.00;99.90;;;;;;2621554;54;20399;-80
2022/10/21 22:40:45;;;;;;;8.93;3.60;;;14.40;99.90;;;;;;2625023;39;20756;-80
2022/10/21 22:46:33;;;;;;;4.83;3.60;;;14.40;99.90;;;;;;2623009;54;20141;-79
2022/10/21 22:52:22;;;;;;;6.40;4.20;;;14.00;99.90;;;;;;2623026;54;20158;-80
2022/10/21 22:58:18;;;;;;;6.70;4.67;;;14.00;99.90;;;;;;2617285;46;20137;-79
2022/10/21 23:04:06;;;;;;;7.53;4.47;;;13.70;99.90;;;;;;2620384;39;20484;-80
2022/10/21 23:09:53;;;;;;;7.17;4.67;;;13.60;99.90;;;;;;2622344;54;20153;-81
2022/10/21 23:15:41;;;;;;;5.30;4.30;;;13.70;99.90;;;;;;2621255;54;20148;-80
2022/10/21 23:21:29;;;;;;;8.60;5.53;;;13.50;99.90;;;;;;2621358;54;20203;-81
2022/10/21 23:27:17;;;;;;;5.47;4.00;;;13.30;99.90;;;;;;2617000;54;20150;-80
2022/10/21 23:30:30;;;;;;;9.00;4.17;;;13.60;99.90;;;;;;2616792;54;20435;-80
2022/10/21 23:32:56;;;;;;;7.53;4.57;;;13.70;99.90;;;;;;2616578;39;20929;-77
2022/10/21 23:38:43;;;;;;;5.90;3.80;;;13.60;99.90;;;;;;2616572;54;20638;-77
2022/10/21 23:44:31;;;;;;;7.90;4.37;;;13.30;99.90;;;;;;2616380;54;20247;-80
2022/10/21 23:50:19;;;;;;;4.70;3.63;;;13.70;99.90;;;;;;2618442;54;20247;-80
2022/10/21 23:56:07;;;;;;;6.93;4.30;;;14.00;99.90;;;;;;2619708;39;20500;-82
